sim
Sign-in with your pilot id or email,
or register
Callsign
Passwort

Schedule Details

Flight Number: OEO6634
Departure: Dubai International Airport (OMDB) at 04:30
Arrival: Mumbai Chhatrapati Shivaji International Airport (VABB) at 07:45

Weather Information
Getting current METAR information for OMDB 091400Z 03009KT CAVOK 25/20 Q1015 NOSIG
Getting current METAR information for VABB 091430Z 31008KT 3000 HZ NSC 29/23 Q1013 NOSIG

Schedule Frequency

Route Map